Terminal Aerodrome Forecast
Issued by NWS Detroit/Pontiac, MI

Home | Current Version | Previous Version | Text Only | Print | Product List | Glossary On
Versions: 1 2 3 4 5 6 7 8 9 10 11 12 13 14 15 16 17 18
778
FTUS43 KDTX 302320
TAFFNT
TAF
KFNT 302320Z 0100/0124 12007KT 6SM -RA OVC070
     FM010100 08010KT 5SM -RA BR OVC012
     FM010400 06009KT 4SM -RA BR OVC007
     FM010800 04010KT 4SM RA BR OVC007
     FM011600 03010KT P6SM OVC015
     FM011900 02010KT P6SM BKN020=

USA.gov is the U.S. government's official web portal to all federal, state and local government web resources and services.